Terminal Aerodrome Forecast
Issued by NWS Quad Cities IA IL

Home | Current Version | Previous Version | Text Only | Print | Product List | Glossary On
Versions: 1 2 3 4 5 6 7 8 9 10 11 12 13 14 15 16 17 18 19 20 21 22 23 24 25 26 27 28 29
299
FTUS43 KDVN 301657 AAB
TAFDBQ
TAF AMD
KDBQ 301657Z 3017/0112 06015KT 3SM -RA BR OVC010
      TEMPO 3017/3020 2SM -RA BR OVC008
     FM302000 07015G21KT 2SM -RA BR OVC007
     FM302200 06017G22KT 5SM BR VCSH OVC006
     FM010400 05014KT 6SM BR VCSH OVC006=

USA.gov is the U.S. government's official web portal to all federal, state and local government web resources and services.